Flight Track Log - Related Links

Times and Time Zones

All times are in EDT time to prevent confusion due to time zone crossing. See the GJS3710 flight status page for this flight to view local times or setup timezone preferences in your user account.

Time Position Orientation Groundspeed Altitude Reporting Facility
EDT Latitude Longitude Course Direction KTS MPH feet Rate Location/Type
Sun 09:59:24 PM 41.9667 -87.8500 66° East 191 220 3,000  Level Chicago TRACON
Sun 10:00:07 PM 41.9683 -87.7997 87° East 202 232 4,200 1,771 Climbing Chicago Center
Sun 10:01:00 PM 42.1049 -87.5175 63° Northeast  Level FlightAware Approximate
Sun 10:01:09 PM 41.9842 -87.7044 77° East 260 299 6,100  Level Chicago Center
Sun 10:02:00 PM 42.1542 -87.3875 66° East  Level FlightAware Approximate
Sun 10:02:10 PM 42.0231 -87.5856 66° East 290 334 9,000  Level Chicago Center
Sun 10:03:00 PM 42.1987 -87.2541 66° East  Level FlightAware Approximate
Sun 10:03:12 PM 42.0694 -87.4942 56° Northeast 297 342 11,600  Level Chicago Center
Sun 10:04:00 PM 42.2431 -87.1207 66° East  Level FlightAware Approximate
Sun 10:04:14 PM 42.1161 -87.3989 57° Northeast 304 350 13,900  Level Chicago Center
Sun 10:05:15 PM 42.1656 -87.2978 57° Northeast 320 368 15,900 1,561 Climbing Chicago Center
Sun 10:06:17 PM 42.2194 -87.1867 57° Northeast 350 403 17,100 1,161 Climbing Chicago Center
Sun 10:07:19 PM 42.2750 -87.0617 59° Northeast 388 447 18,300 1,317 Climbing Chicago Center
Sun 10:08:20 PM 42.2850 -86.9081 85° East 414 476 19,800 1,659 Climbing Chicago Center
Sun 10:09:22 PM 42.2928 -86.7242 87° East 413 475 21,700 1,548 Climbing Chicago Center
Sun 10:10:24 PM 42.2981 -86.5694 87° East 420 483 23,000 634 Climbing Chicago Center
Sun 10:11:25 PM 42.3031 -86.4153 87° East 433 498 23,000 293 Level Chicago Center
Sun 10:12:27 PM 42.3094 -86.2425 87° East 457 526 23,600 1,024 Climbing Chicago Center
Sun 10:13:28 PM 42.3144 -86.0689 88° East 464 534 25,100 1,415 Climbing Chicago Center
Sun 10:14:30 PM 42.3125 -85.8636 91° East 461 531 26,500 1,220 Climbing Chicago Center
Sun 10:15:31 PM 42.3100 -85.6922 91° East 461 531 27,600 1,073 Climbing Chicago Center
Sun 10:16:33 PM 42.3083 -85.5186 91° East 465 535 28,700 1,073 Climbing Chicago Center
Sun 10:17:34 PM 42.3056 -85.3475 91° East 462 532 29,800 1,073 Climbing Chicago Center
Sun 10:18:36 PM 42.3028 -85.1764 91° East 460 529 30,900 1,073 Climbing Chicago Center
Sun 10:19:37 PM 42.3136 -85.0100 85° East 449 517 32,000 1,122 Climbing Chicago Center
Sun 10:20:39 PM 42.3308 -84.8094 83° East 451 519 33,200 1,024 Climbing Chicago Center
Sun 10:21:40 PM 42.3453 -84.6450 83° East 445 512 34,100 878 Climbing Chicago Center
Sun 10:22:42 PM 42.3589 -84.4808 84° East 442 509 35,000 874 Climbing Chicago Center
Sun 10:23:23 PM 42.3667 -84.3661 85° East 435 501 35,600 891 Climbing Cleveland Center
Sun 10:24:23 PM 42.3803 -84.2039 83° East 440 506 36,500 700 Climbing Cleveland Center
Sun 10:25:23 PM 42.3936 -84.0414 84° East 440 506 37,000 250 Climbing Cleveland Center
Sun 10:26:23 PM 42.4067 -83.8792 84° East 440 506 37,000  Level Cleveland Center
Sun 10:27:23 PM 42.4217 -83.7139 83° East 440 506 37,000  Level Cleveland Center
Sun 10:28:23 PM 42.4367 -83.5458 83° East 440 506 37,000  Level Cleveland Center
Sun 10:29:23 PM 42.4494 -83.3719 84° East 445 512 37,000  Level Cleveland Center
Sun 10:30:23 PM 42.4569 -83.2231 86° East 451 519 37,000  Level Cleveland Center
Sun 10:31:23 PM 42.4669 -83.0544 85° East 451 519 37,000  Level Cleveland Center
Sun 10:32:23 PM 42.4808 -82.8889 83° East 446 513 37,000  Level Cleveland Center
Sun 10:33:23 PM 42.4903 -82.7175 86° East 446 513 37,000  Level Cleveland Center
Sun 10:34:23 PM 42.5017 -82.5461 85° East 441 507 37,000  Level Cleveland Center
Sun 10:35:23 PM 42.5128 -82.3775 85° East 446 513 37,000  Level Cleveland Center
Sun 10:36:23 PM 42.5239 -82.2031 85° East 446 513 37,000  Level Cleveland Center
Sun 10:37:23 PM 42.5344 -82.0342 85° East 446 513 37,000  Level Cleveland Center
Sun 10:38:23 PM 42.5447 -81.8656 85° East 446 513 37,000  Level Cleveland Center
Sun 10:39:23 PM 42.5569 -81.6994 84° East 446 513 37,000  Level Cleveland Center
Sun 10:40:23 PM 42.5667 -81.5303 85° East 446 513 37,000  Level Cleveland Center
Sun 10:41:23 PM 42.5783 -81.3586 85° East 453 521 37,000  Level Cleveland Center
Sun 10:42:23 PM 42.5858 -81.1894 86° East 453 521 37,000  Level Cleveland Center
Sun 10:43:23 PM 42.5947 -81.0175 86° East 458 527 37,000  Level Cleveland Center
Sun 10:44:23 PM 42.6058 -80.8342 85° East 458 527 37,000  Level Cleveland Center
Sun 10:45:23 PM 42.6122 -80.6622 87° East 458 527 37,000  Level Cleveland Center
Sun 10:46:23 PM 42.6206 -80.4928 86° East 450 518 37,000  Level Cleveland Center
Sun 10:47:23 PM 42.6308 -80.3181 85° East 455 524 37,000  Level Cleveland Center
Sun 10:48:23 PM 42.6386 -80.1486 86° East 455 524 37,000  Level Cleveland Center
Sun 10:49:23 PM 42.6464 -79.9933 86° East 455 524 37,000  Level Cleveland Center
Sun 10:50:23 PM 42.6556 -79.8042 86° East 461 531 37,000  Level Cleveland Center
Sun 10:51:23 PM 42.6606 -79.6317 88° East 461 531 37,000  Level Cleveland Center
Sun 10:52:23 PM 42.6672 -79.4594 87° East 461 531 37,000  Level Cleveland Center
Sun 10:53:23 PM 42.6758 -79.2869 86° East 461 531 37,000  Level Cleveland Center
Sun 10:54:23 PM 42.6822 -79.1117 87° East 461 531 37,000  Level Cleveland Center
Sun 10:55:23 PM 42.6883 -78.9392 87° East 455 524 37,000  Level Cleveland Center
Sun 10:56:23 PM 42.6939 -78.7639 87° East 460 529 37,000  Level Cleveland Center
Sun 10:57:23 PM 42.6994 -78.5886 87° East 460 529 37,000  Level Cleveland Center
Sun 10:58:23 PM 42.7044 -78.4133 88° East 460 529 37,000  Level Cleveland Center
Sun 10:59:23 PM 42.7094 -78.2378 88° East 460 529 37,000  Level Cleveland Center
Sun 11:00:23 PM 42.7142 -78.0625 88° East 460 529 37,000  Level Cleveland Center
Sun 11:01:23 PM 42.7206 -77.8869 87° East 460 529 37,000 -100 Level Cleveland Center
Sun 11:02:23 PM 42.7256 -77.7456 87° East 460 529 36,800 -700 Descending Cleveland Center
Sun 11:03:23 PM 42.7264 -77.5364 90° East 460 529 35,600 -1,067 Descending Cleveland Center
Sun 11:05:06 PM 42.7325 -77.2436 88° East 477 549 33,900 -957 Descending Boston Center
Sun 11:06:06 PM 42.7358 -77.0628 89° East 477 549 33,000 -1,000 Descending Boston Center
Sun 11:07:06 PM 42.7386 -76.8847 89° East 477 549 31,900 -955 Descending Boston Center
Sun 11:08:18 PM 42.7414 -76.7067 89° East 477 549 30,900 -955 Descending Boston Center
Sun 11:09:18 PM 42.7453 -76.4864 89° East 477 549 29,800 -1,150 Descending Boston Center
Sun 11:10:18 PM 42.7472 -76.3083 89° East 477 549 28,600 -1,450 Descending Boston Center
Sun 11:11:18 PM 42.7489 -76.1358 89° East 477 549 26,900 -1,750 Descending Boston Center
Sun 11:12:18 PM 42.7503 -75.9606 89° East 465 535 25,100 -1,136 Descending Boston Center
Sun 11:13:30 PM 42.7533 -75.7939 89° East 458 527 24,400 -1,318 Descending Boston Center
Sun 11:14:30 PM 42.7547 -75.5989 89° East 437 503 22,200 -2,000 Descending Boston Center
Sun 11:15:30 PM 42.7528 -75.4319 91° East 432 497 20,400 -1,800 Descending Boston Center
Sun 11:16:30 PM 42.7550 -75.2708 89° East 432 497 18,600 -1,750 Descending Boston Center
Sun 11:17:30 PM 42.7544 -75.1122 90° East 422 486 16,900 -1,950 Descending Boston Center
Sun 11:18:30 PM 42.7542 -74.9428 90° East 417 480 14,700 -1,900 Descending Boston Center
Sun 11:19:30 PM 42.7531 -74.7983 91° East 399 459 13,100 -1,565 Descending Boston Center
Sun 11:20:02 PM 42.7547 -74.7278 88° East 370 426 12,300 -1,167 Descending Boston Center
Sun 11:20:42 PM 42.7536 -74.6739 92° East 377 434 11,700 -780 Descending Boston Center
Sun 11:21:42 PM 42.7525 -74.5128 90° East 355 409 11,000 -900 Descending Boston Center
Sun 11:22:42 PM 42.7528 -74.3825 90° East 329 379 9,900 -1,250 Descending Boston Center
Sun 11:23:42 PM 42.7500 -74.2892 92° East 309 356 8,500 -1,600 Descending Boston Center
Sun 11:24:42 PM 42.7494 -74.1931 90° East 288 331 6,700 -2,050 Descending Boston Center
Sun 11:25:42 PM 42.7492 -74.0714 90° East 282 325 4,400 -2,300 Descending Boston Center

Login

Don't have an account? Register now (free) for customized features, flight alerts, and more!